Time;durP1;ratioP1;P1;durP2;ratioP2;P2;SDS_P1;SDS_P2;PMS_P1;PMS_P2;Temp;Humidity;BMP_temperature;BMP_pressure;BME280_temperature;BME280_humidity;BME280_pressure;Samples;Min_cycle;Max_cycle;Signal;HPM_P1;HPM_P2
2022/02/01 00:01:39;;;;;;;34.22;17.40;;;2.30;99.90;;;;;;5032051;28;20067;-83
2022/02/01 00:04:07;;;;;;;32.15;17.98;;;2.10;99.90;;;;;;5007750;28;20057;-82
2022/02/01 00:09:15;;;;;;;31.08;17.00;;;2.20;99.90;;;;;;5005442;28;20033;-82
2022/02/01 00:14:21;;;;;;;31.63;18.05;;;2.20;99.90;;;;;;5009238;28;20029;-82
2022/02/01 00:33:20;;;;;;;38.13;21.55;;;2.10;99.90;;;;;;5027504;28;20026;-82
2022/02/01 00:38:49;;;;;;;33.58;18.55;;;2.10;99.90;;;;;;5033059;28;20061;-81
2022/02/01 00:41:15;;;;;;;31.50;18.95;;;2.10;99.90;;;;;;5028542;28;20033;-80
2022/02/01 00:43:40;;;;;;;31.33;18.42;;;2.20;99.90;;;;;;5042861;28;20029;-79
2022/02/01 00:46:06;;;;;;;37.22;20.42;;;2.20;99.90;;;;;;5043010;28;20396;-81
2022/02/01 00:48:32;;;;;;;30.50;19.13;;;2.20;99.90;;;;;;5040395;28;20296;-83
2022/02/01 00:51:02;;;;;;;35.08;18.40;;;2.20;99.90;;;;;;5037678;28;20033;-84
2022/02/01 00:53:29;;;;;;;29.80;17.70;;;2.30;99.90;;;;;;5064123;28;20067;-82
2022/02/01 00:55:57;;;;;;;30.35;16.65;;;2.40;99.90;;;;;;5029626;28;20112;-83
2022/02/01 00:58:23;;;;;;;34.10;19.42;;;2.30;99.90;;;;;;5032431;28;20028;-80
2022/02/01 01:00:52;;;;;;;34.55;18.98;;;2.10;99.90;;;;;;5056275;28;20061;-83
2022/02/01 01:03:18;;;;;;;38.22;20.15;;;2.10;99.90;;;;;;5054386;28;20064;-81
2022/02/01 01:05:44;;;;;;;29.20;17.83;;;2.20;99.90;;;;;;5034574;28;20099;-81
2022/02/01 01:08:10;;;;;;;31.25;19.52;;;2.30;99.90;;;;;;5040918;28;20106;-83
2022/02/01 01:10:36;;;;;;;33.22;19.27;;;2.30;99.90;;;;;;5024710;28;20371;-81
2022/02/01 01:13:48;;;;;;;33.17;17.23;;;2.40;99.90;;;;;;5011413;28;20017;-80
2022/02/01 01:16:00;;;;;;;32.38;18.08;;;2.50;99.90;;;;;;5035450;28;20072;-82
2022/02/01 01:54:07;;;;;;;38.03;19.17;;;2.60;99.90;;;;;;5040394;28;20038;-81
2022/02/01 01:56:34;;;;;;;35.55;19.52;;;2.60;99.90;;;;;;5005552;28;20034;-79
2022/02/01 01:59:03;;;;;;;35.45;19.35;;;2.60;99.90;;;;;;5052708;28;20040;-82
2022/02/01 02:01:30;;;;;;;38.33;20.13;;;2.60;99.90;;;;;;5045547;28;20403;-81
2022/02/01 02:03:56;;;;;;;31.73;18.67;;;2.60;99.90;;;;;;5039474;28;20496;-80
2022/02/01 02:06:22;;;;;;;35.78;18.20;;;2.60;99.90;;;;;;5039215;28;20033;-79
2022/02/01 02:08:51;;;;;;;32.55;16.48;;;2.70;99.90;;;;;;5030022;28;20033;-79
2022/02/01 02:11:25;;;;;;;37.20;17.98;;;2.60;99.90;;;;;;5011400;28;20041;-79
2022/02/01 02:14:21;;;;;;;32.40;18.90;;;2.70;99.90;;;;;;5027071;28;20044;-80
2022/02/01 02:16:50;;;;;;;32.35;17.38;;;2.70;99.90;;;;;;5037269;28;20558;-81
2022/02/01 02:19:16;;;;;;;34.67;17.35;;;2.80;99.90;;;;;;5041082;28;20024;-78
2022/02/01 02:21:57;;;;;;;33.13;17.60;;;2.70;99.90;;;;;;5061295;28;20040;-79
2022/02/01 02:24:30;;;;;;;33.17;17.25;;;2.80;99.90;;;;;;5042688;28;20072;-81
2022/02/01 02:26:57;;;;;;;33.45;17.38;;;2.80;99.90;;;;;;5042887;28;20472;-79
2022/02/01 02:29:23;;;;;;;31.20;17.02;;;2.80;99.90;;;;;;5060451;28;20038;-80
2022/02/01 02:31:48;;;;;;;26.90;16.73;;;2.80;99.90;;;;;;5054773;28;20032;-78
2022/02/01 02:34:16;;;;;;;28.90;17.00;;;2.90;99.90;;;;;;5005216;28;20030;-81
2022/02/01 02:36:52;;;;;;;31.80;16.42;;;2.70;99.90;;;;;;5031608;28;20033;-78
2022/02/01 02:47:14;;;;;;;25.25;14.02;;;2.80;99.90;;;;;;5042957;28;20049;-79
2022/02/01 02:49:40;;;;;;;30.17;15.73;;;2.70;99.90;;;;;;5023689;28;20545;-79
2022/02/01 02:52:06;;;;;;;25.80;14.07;;;2.70;99.90;;;;;;5019897;28;20052;-79
2022/02/01 02:54:32;;;;;;;27.63;14.23;;;2.70;99.90;;;;;;5040457;28;20511;-78
2022/02/01 02:57:00;;;;;;;24.30;14.30;;;2.60;99.90;;;;;;5038788;28;20400;-79
2022/02/01 02:59:27;;;;;;;25.33;14.98;;;2.60;99.90;;;;;;5039775;28;20029;-79
2022/02/01 03:01:53;;;;;;;24.27;14.25;;;2.60;99.90;;;;;;5045731;28;20041;-78
2022/02/01 03:04:21;;;;;;;23.27;12.75;;;2.70;99.90;;;;;;5021761;28;20032;-78
2022/02/01 03:06:48;;;;;;;19.10;11.73;;;2.70;99.90;;;;;;5022168;28;20045;-79
2022/02/01 03:09:15;;;;;;;24.55;12.52;;;2.50;99.90;;;;;;5038166;28;20443;-80
2022/02/01 03:11:41;;;;;;;19.77;11.55;;;2.50;99.90;;;;;;5019058;28;20111;-80
2022/02/01 03:14:26;;;;;;;20.63;11.95;;;2.40;99.90;;;;;;5019261;28;20071;-80
2022/02/01 03:17:09;;;;;;;20.25;11.25;;;2.40;99.90;;;;;;5024051;28;20063;-79
2022/02/01 03:19:50;;;;;;;23.23;11.35;;;2.50;99.90;;;;;;5020187;28;20037;-79
2022/02/01 03:22:20;;;;;;;22.67;11.50;;;2.50;99.90;;;;;;5019321;28;20060;-80
2022/02/01 03:24:46;;;;;;;21.10;10.98;;;2.50;99.90;;;;;;5026272;28;20041;-80
2022/02/01 03:27:12;;;;;;;21.63;10.60;;;2.50;99.90;;;;;;5032030;28;20032;-79
2022/02/01 03:29:38;;;;;;;18.52;10.15;;;2.50;99.90;;;;;;5037316;28;20450;-80
2022/02/01 03:32:04;;;;;;;19.30;11.00;;;2.30;99.90;;;;;;5021014;28;20052;-79
2022/02/01 03:34:30;;;;;;;18.13;9.95;;;2.30;99.90;;;;;;5046726;28;20388;-81
2022/02/01 03:36:55;;;;;;;20.77;10.80;;;2.30;99.90;;;;;;5055615;28;20035;-79
2022/02/01 03:39:21;;;;;;;17.88;10.82;;;2.40;99.90;;;;;;5017950;28;20691;-79
2022/02/01 03:41:47;;;;;;;15.13;9.82;;;2.30;99.90;;;;;;5014849;28;20099;-78
2022/02/01 03:44:12;;;;;;;22.85;10.98;;;2.40;99.90;;;;;;5020446;28;20029;-79
2022/02/01 03:46:43;;;;;;;20.23;11.70;;;2.50;99.90;;;;;;5017770;28;20041;-79
2022/02/01 03:49:09;;;;;;;23.15;12.57;;;2.50;99.90;;;;;;5009979;28;20029;-81
2022/02/01 03:51:35;;;;;;;23.70;12.45;;;2.50;99.90;;;;;;5029552;28;20523;-81
2022/02/01 03:54:03;;;;;;;24.80;12.82;;;2.50;99.90;;;;;;5028177;28;20034;-80
2022/02/01 03:56:29;;;;;;;26.10;13.13;;;2.30;99.90;;;;;;5011316;28;20137;-80
2022/02/01 03:58:54;;;;;;;22.30;13.80;;;2.30;99.90;;;;;;5021900;28;20517;-80
2022/02/01 04:01:20;;;;;;;25.58;13.32;;;2.30;99.90;;;;;;5021312;28;20032;-81
2022/02/01 04:03:45;;;;;;;20.05;13.38;;;2.40;99.90;;;;;;5033331;28;20063;-81
2022/02/01 04:06:11;;;;;;;26.63;13.70;;;2.40;99.90;;;;;;5028826;28;20044;-80
2022/02/01 04:08:39;;;;;;;25.75;14.50;;;2.40;99.90;;;;;;5009729;28;20048;-80
2022/02/01 04:11:05;;;;;;;24.90;13.52;;;2.30;99.90;;;;;;5033277;28;20112;-81
2022/02/01 04:13:30;;;;;;;26.35;14.68;;;2.30;99.90;;;;;;5031844;28;20037;-81
2022/02/01 04:15:56;;;;;;;26.88;13.65;;;2.40;99.90;;;;;;5048289;28;20026;-81
2022/02/01 04:18:21;;;;;;;25.65;13.82;;;2.30;99.90;;;;;;5034077;28;20043;-80
2022/02/01 04:20:47;;;;;;;24.38;14.52;;;2.30;99.90;;;;;;5049323;28;20423;-79
2022/02/01 04:23:13;;;;;;;25.63;14.43;;;2.30;99.90;;;;;;5037319;28;20033;-80
2022/02/01 04:25:59;;;;;;;29.25;15.32;;;2.40;99.90;;;;;;5028211;28;20067;-80
2022/02/01 04:28:26;;;;;;;25.02;14.02;;;2.40;99.90;;;;;;5074810;28;20043;-79
2022/02/01 04:30:52;;;;;;;34.13;15.20;;;2.40;99.90;;;;;;5045625;28;20072;-80
2022/02/01 04:33:17;;;;;;;24.30;13.82;;;2.50;99.90;;;;;;5040613;28;20029;-79
2022/02/01 04:35:43;;;;;;;25.00;13.98;;;2.50;99.90;;;;;;5024621;28;20116;-80
2022/02/01 04:38:08;;;;;;;26.75;15.02;;;2.50;99.90;;;;;;4994026;28;20052;-79
2022/02/01 04:40:34;;;;;;;21.20;14.55;;;2.50;99.90;;;;;;5029786;28;20059;-80
2022/02/01 04:43:03;;;;;;;29.67;15.27;;;2.60;99.90;;;;;;5028868;28;20025;-80
2022/02/01 04:45:29;;;;;;;29.92;15.25;;;2.40;99.90;;;;;;5046353;28;20025;-79
2022/02/01 04:47:55;;;;;;;29.65;15.93;;;2.40;99.90;;;;;;5046136;28;20025;-80
2022/02/01 04:50:27;;;;;;;27.02;16.20;;;2.30;99.90;;;;;;5011226;28;20030;-80
2022/02/01 04:52:54;;;;;;;31.10;16.02;;;2.30;99.90;;;;;;5042458;28;20025;-79
2022/02/01 04:55:23;;;;;;;35.00;18.15;;;2.20;99.90;;;;;;5028846;28;20091;-80
2022/02/01 04:57:55;;;;;;;29.27;17.63;;;2.10;99.90;;;;;;5046863;28;20033;-78
2022/02/01 05:00:23;;;;;;;35.50;18.48;;;2.10;99.90;;;;;;5010558;28;20045;-79
2022/02/01 05:02:49;;;;;;;33.60;19.73;;;2.10;99.90;;;;;;5045858;28;20029;-79
2022/02/01 05:05:14;;;;;;;33.08;18.83;;;2.00;99.90;;;;;;5027159;28;20101;-79
2022/02/01 05:07:40;;;;;;;33.13;17.42;;;2.00;99.90;;;;;;5047511;28;20304;-80
2022/02/01 05:10:06;;;;;;;33.42;18.08;;;2.00;99.90;;;;;;5030136;28;20028;-79
2022/02/01 05:12:36;;;;;;;33.75;18.00;;;2.10;99.90;;;;;;5010442;28;20060;-78
2022/02/01 05:15:07;;;;;;;32.75;18.08;;;2.20;99.90;;;;;;5014460;28;20100;-80
2022/02/01 05:17:39;;;;;;;33.65;19.02;;;2.10;99.90;;;;;;5056163;28;20513;-79
2022/02/01 05:20:22;;;;;;;35.10;18.40;;;2.10;99.90;;;;;;5025535;28;20033;-79
2022/02/01 05:22:48;;;;;;;32.35;17.90;;;2.10;99.90;;;;;;5019954;28;20021;-79
2022/02/01 05:25:14;;;;;;;30.90;17.20;;;2.20;99.90;;;;;;5023490;28;20112;-80
2022/02/01 05:27:40;;;;;;;29.27;16.63;;;2.30;99.90;;;;;;5026535;28;20510;-79
2022/02/01 05:30:06;;;;;;;33.03;17.73;;;2.40;99.90;;;;;;5043672;28;20089;-80
2022/02/01 05:32:32;;;;;;;32.58;17.88;;;2.50;99.90;;;;;;5041501;28;20115;-80
2022/02/01 05:34:57;;;;;;;35.22;18.58;;;2.50;99.90;;;;;;5041618;28;20044;-81
2022/02/01 05:37:24;;;;;;;31.83;17.05;;;2.40;99.90;;;;;;5031522;28;20442;-80
2022/02/01 05:39:50;;;;;;;33.88;17.65;;;2.50;99.90;;;;;;5044388;28;20032;-80
2022/02/01 05:42:19;;;;;;;30.90;15.93;;;2.60;99.90;;;;;;5024106;28;20136;-80
2022/02/01 05:44:46;;;;;;;26.88;16.88;;;2.60;99.90;;;;;;5054976;28;20466;-79
2022/02/01 05:47:14;;;;;;;32.55;18.33;;;2.60;99.90;;;;;;5038551;28;20028;-80
2022/02/01 05:49:41;;;;;;;31.73;17.27;;;2.60;99.90;;;;;;5050146;28;20044;-83
2022/02/01 05:52:06;;;;;;;35.40;18.17;;;2.60;99.90;;;;;;5067825;28;20490;-82
2022/02/01 05:54:32;;;;;;;33.15;17.67;;;2.50;99.90;;;;;;5025391;28;20033;-79
2022/02/01 05:56:58;;;;;;;29.02;16.85;;;2.60;99.90;;;;;;5017195;28;20030;-79
2022/02/01 05:59:24;;;;;;;34.92;16.27;;;2.70;99.90;;;;;;5041554;28;20032;-82
2022/02/01 06:01:49;;;;;;;32.13;16.13;;;2.60;99.90;;;;;;5033702;28;20059;-80
2022/02/01 06:04:15;;;;;;;26.65;13.95;;;2.70;99.90;;;;;;5064143;28;20043;-80
2022/02/01 06:06:40;;;;;;;26.38;14.18;;;2.70;99.90;;;;;;5047234;28;20037;-81
2022/02/01 06:09:06;;;;;;;26.27;14.75;;;2.70;99.90;;;;;;5010773;28;20039;-81
2022/02/01 06:11:32;;;;;;;28.92;14.98;;;2.40;99.90;;;;;;5028932;28;20040;-81
2022/02/01 06:13:57;;;;;;;25.10;14.65;;;2.50;99.90;;;;;;5043243;28;20038;-81
2022/02/01 06:16:24;;;;;;;29.20;15.20;;;2.40;99.90;;;;;;5024972;28;20028;-83
2022/02/01 06:18:50;;;;;;;30.48;15.27;;;2.40;99.90;;;;;;5032364;28;20064;-80
2022/02/01 06:21:16;;;;;;;28.20;15.10;;;2.40;99.90;;;;;;5027344;28;20026;-81
2022/02/01 06:23:41;;;;;;;27.63;14.27;;;2.30;99.90;;;;;;5039535;28;20044;-79
2022/02/01 06:26:07;;;;;;;28.10;14.73;;;2.30;99.90;;;;;;5050319;28;20052;-80
2022/02/01 06:28:33;;;;;;;28.10;15.27;;;2.30;99.90;;;;;;5002427;28;20034;-80
2022/02/01 06:30:58;;;;;;;34.42;17.33;;;2.30;99.90;;;;;;5039923;28;20032;-81
2022/02/01 06:33:25;;;;;;;28.35;16.25;;;2.30;99.90;;;;;;5030518;28;20039;-80
2022/02/01 06:35:52;;;;;;;29.52;16.25;;;2.30;99.90;;;;;;5030689;28;20095;-81
2022/02/01 06:38:18;;;;;;;32.45;17.90;;;2.40;99.90;;;;;;5075897;28;20037;-80
2022/02/01 06:40:46;;;;;;;32.47;17.17;;;2.40;99.90;;;;;;5028709;28;20037;-80
2022/02/01 06:43:13;;;;;;;37.58;19.20;;;2.20;99.90;;;;;;5062851;28;20040;-80
2022/02/01 06:45:40;;;;;;;37.20;18.10;;;2.20;99.90;;;;;;5031717;28;20064;-81
2022/02/01 06:48:06;;;;;;;30.98;17.35;;;2.10;99.90;;;;;;5046309;28;20029;-80
2022/02/01 06:50:33;;;;;;;32.70;17.38;;;2.20;99.90;;;;;;5046209;28;20052;-82
2022/02/01 06:52:59;;;;;;;33.70;15.82;;;2.20;99.90;;;;;;5029905;28;20025;-80
2022/02/01 06:58:12;;;;;;;33.03;15.68;;;2.40;99.90;;;;;;5048797;28;20028;-80
2022/02/01 07:00:38;;;;;;;28.35;14.48;;;2.50;99.90;;;;;;5041637;28;20059;-80
2022/02/01 07:03:03;;;;;;;31.55;14.60;;;2.50;99.90;;;;;;5027861;28;20037;-79
2022/02/01 07:05:29;;;;;;;26.10;13.43;;;2.40;99.90;;;;;;5003878;28;20045;-80
2022/02/01 07:07:55;;;;;;;21.48;11.27;;;2.50;99.90;;;;;;5058410;28;20528;-81
2022/02/01 07:10:20;;;;;;;24.27;12.70;;;2.50;99.90;;;;;;5036114;28;20038;-80
2022/02/01 07:12:46;;;;;;;27.45;13.02;;;2.50;99.90;;;;;;5023011;28;20033;-81
2022/02/01 07:15:12;;;;;;;29.85;11.55;;;2.40;99.90;;;;;;5031095;28;20026;-81
2022/02/01 07:17:49;;;;;;;22.45;11.27;;;2.50;99.90;;;;;;5043826;28;20029;-80
2022/02/01 07:20:16;;;;;;;21.40;10.07;;;2.50;99.90;;;;;;5044381;28;20035;-81
2022/02/01 07:22:43;;;;;;;19.27;10.10;;;2.70;99.90;;;;;;5043951;28;20063;-81
2022/02/01 07:25:23;;;;;;;20.92;9.63;;;2.60;99.90;;;;;;5029258;28;20041;-82
2022/02/01 07:27:53;;;;;;;19.65;9.20;;;2.60;99.90;;;;;;5045575;28;20514;-81
2022/02/01 07:30:23;;;;;;;20.58;8.27;;;2.60;99.90;;;;;;5023764;28;20030;-82
2022/02/01 07:32:49;;;;;;;22.80;9.75;;;2.60;99.90;;;;;;5049094;28;20059;-84
2022/02/01 07:35:15;;;;;;;15.57;8.75;;;2.50;99.90;;;;;;5045874;28;20029;-82
2022/02/01 07:37:42;;;;;;;17.60;7.82;;;2.50;99.90;;;;;;5024328;28;20052;-83
2022/02/01 07:40:11;;;;;;;15.38;7.18;;;2.60;99.90;;;;;;5026400;28;20033;-81
2022/02/01 07:42:37;;;;;;;21.30;7.97;;;2.60;99.90;;;;;;5025767;28;20036;-81
2022/02/01 07:45:05;;;;;;;24.23;8.68;;;2.60;99.90;;;;;;5028149;28;20032;-81
2022/02/01 07:47:31;;;;;;;18.58;7.50;;;2.70;99.90;;;;;;5028649;28;20063;-83
2022/02/01 07:49:57;;;;;;;18.83;7.93;;;2.70;99.90;;;;;;5062259;28;20036;-81
2022/02/01 07:52:23;;;;;;;18.50;8.48;;;2.70;99.90;;;;;;5037347;28;20029;-81
2022/02/01 07:54:48;;;;;;;17.65;7.50;;;2.70;99.90;;;;;;5047648;28;20048;-81
2022/02/01 07:57:14;;;;;;;20.13;7.22;;;2.80;99.90;;;;;;5043137;28;20033;-81
2022/02/01 07:59:54;;;;;;;24.52;7.03;;;2.70;99.90;;;;;;5038882;28;20029;-82
2022/02/01 08:02:25;;;;;;;23.40;7.15;;;2.70;99.90;;;;;;5046433;28;20083;-82
2022/02/01 08:04:56;;;;;;;16.77;6.22;;;2.80;99.90;;;;;;5048399;28;20040;-81
2022/02/01 08:07:22;;;;;;;22.75;6.32;;;2.90;99.90;;;;;;5027373;28;20033;-82
2022/02/01 08:09:51;;;;;;;21.52;5.82;;;2.90;99.90;;;;;;5010103;28;20044;-82
2022/02/01 08:12:37;;;;;;;22.63;6.82;;;2.90;99.90;;;;;;5045106;28;20057;-83
2022/02/01 08:16:06;;;;;;;20.75;5.47;;;2.80;99.90;;;;;;5037300;28;20076;-83
2022/02/01 08:20:44;;;;;;;19.23;5.53;;;3.00;99.90;;;;;;5045646;28;20091;-83
2022/02/01 08:23:10;;;;;;;19.30;6.05;;;3.00;99.90;;;;;;5051267;28;20439;-81
2022/02/01 08:25:36;;;;;;;21.48;5.28;;;3.10;99.90;;;;;;5031264;28;20074;-82
2022/02/01 08:28:04;;;;;;;23.67;6.22;;;3.00;99.90;;;;;;5029161;28;20037;-81
2022/02/01 08:30:30;;;;;;;21.25;5.68;;;3.00;99.90;;;;;;5045009;28;20036;-81
2022/02/01 08:32:56;;;;;;;25.77;5.35;;;3.00;99.90;;;;;;5022724;28;20151;-83
2022/02/01 08:35:21;;;;;;;22.45;5.68;;;3.00;99.90;;;;;;5004887;28;20066;-82
2022/02/01 08:37:48;;;;;;;26.88;6.45;;;3.10;99.90;;;;;;5059666;28;20052;-80
2022/02/01 08:40:16;;;;;;;20.00;4.88;;;3.10;99.90;;;;;;5030811;28;20047;-81
2022/02/01 08:42:43;;;;;;;24.48;6.05;;;3.00;99.90;;;;;;5030579;28;20082;-81
2022/02/01 08:45:10;;;;;;;21.17;5.60;;;3.00;99.90;;;;;;5033854;28;20100;-81
2022/02/01 08:47:36;;;;;;;18.33;4.85;;;3.00;99.90;;;;;;5047047;28;20036;-81
2022/02/01 08:50:02;;;;;;;23.55;6.38;;;3.00;99.90;;;;;;5047921;28;20048;-81
2022/02/01 08:52:38;;;;;;;21.23;5.38;;;3.10;99.90;;;;;;5042848;28;20435;-81
2022/02/01 08:55:07;;;;;;;22.35;6.45;;;3.10;99.90;;;;;;5031490;28;20041;-81
2022/02/01 08:57:33;;;;;;;23.58;5.82;;;3.10;99.90;;;;;;5012393;28;20056;-82
2022/02/01 09:00:04;;;;;;;29.27;6.25;;;3.10;99.90;;;;;;5044914;28;20028;-80
2022/02/01 09:02:30;;;;;;;23.27;5.70;;;3.10;99.90;;;;;;5041666;28;20037;-81
2022/02/01 09:04:57;;;;;;;22.05;6.45;;;3.20;99.90;;;;;;5039049;28;20033;-81
2022/02/01 09:07:23;;;;;;;22.15;6.57;;;3.20;99.90;;;;;;5028592;28;20388;-83
2022/02/01 09:09:49;;;;;;;22.85;6.18;;;3.20;99.90;;;;;;5044977;28;20488;-81
2022/02/01 09:12:17;;;;;;;24.23;5.53;;;3.20;99.90;;;;;;5044372;28;20369;-81
2022/02/01 09:14:44;;;;;;;15.52;5.03;;;3.20;99.90;;;;;;5028165;28;20045;-82
2022/02/01 09:17:10;;;;;;;17.40;4.97;;;3.30;99.90;;;;;;5027227;28;20017;-81
2022/02/01 09:19:35;;;;;;;18.58;5.00;;;3.30;99.90;;;;;;5043497;28;20115;-81
2022/02/01 09:22:05;;;;;;;28.40;5.18;;;3.40;99.90;;;;;;5060188;28;20084;-81
2022/02/01 09:24:31;;;;;;;17.90;4.75;;;3.40;99.90;;;;;;5063156;28;20044;-83
2022/02/01 09:26:56;;;;;;;18.25;5.03;;;3.40;99.90;;;;;;5030201;28;20056;-82
2022/02/01 09:29:22;;;;;;;16.35;4.38;;;3.30;99.90;;;;;;5044220;28;20029;-83
2022/02/01 09:31:49;;;;;;;23.55;5.43;;;3.40;99.90;;;;;;5021034;28;20565;-81
2022/02/01 09:34:16;;;;;;;14.73;5.13;;;3.50;99.90;;;;;;5045698;28;20686;-81
2022/02/01 09:36:42;;;;;;;17.23;5.70;;;3.50;99.90;;;;;;5029192;28;20036;-81
2022/02/01 09:39:11;;;;;;;15.38;4.72;;;3.50;99.90;;;;;;5042169;28;20037;-83
2022/02/01 09:41:38;;;;;;;17.35;5.18;;;3.50;99.90;;;;;;5028687;28;20053;-81
2022/02/01 09:44:04;;;;;;;20.27;5.57;;;3.60;99.90;;;;;;5047549;28;20088;-81
2022/02/01 09:46:31;;;;;;;21.17;4.93;;;3.50;99.90;;;;;;5032857;28;20033;-82
2022/02/01 09:48:57;;;;;;;21.15;5.63;;;3.50;99.90;;;;;;5029150;28;20038;-82
2022/02/01 09:51:42;;;;;;;25.75;4.07;;;3.50;99.90;;;;;;5027686;28;20038;-83
2022/02/01 09:54:08;;;;;;;14.73;4.07;;;3.50;99.90;;;;;;5018556;28;20083;-82
2022/02/01 09:56:33;;;;;;;15.80;4.70;;;3.50;99.90;;;;;;5043201;28;20505;-82
2022/02/01 09:58:59;;;;;;;15.18;4.10;;;3.60;99.90;;;;;;5010175;28;20039;-79
2022/02/01 10:01:30;;;;;;;16.15;5.65;;;3.70;99.90;;;;;;5031487;28;20041;-80
2022/02/01 10:04:07;;;;;;;13.63;4.13;;;3.80;99.90;;;;;;5045220;28;20043;-82
2022/02/01 10:06:38;;;;;;;19.20;4.88;;;3.80;99.90;;;;;;5034317;28;20036;-81
2022/02/01 10:09:12;;;;;;;14.23;4.35;;;3.70;99.90;;;;;;5040058;28;20051;-79
2022/02/01 10:11:44;;;;;;;17.42;3.97;;;3.70;99.90;;;;;;5056622;28;20028;-80
2022/02/01 10:14:14;;;;;;;13.52;4.35;;;3.80;99.90;;;;;;5020503;28;20488;-80
2022/02/01 10:16:45;;;;;;;18.48;5.25;;;3.80;99.90;;;;;;5044172;28;20093;-79
2022/02/01 10:19:12;;;;;;;21.73;4.60;;;3.90;99.90;;;;;;5043201;28;20029;-80
2022/02/01 10:21:55;;;;;;;21.92;5.25;;;3.90;99.90;;;;;;5023069;28;20120;-80
2022/02/01 10:24:30;;;;;;;24.55;5.05;;;3.90;99.90;;;;;;5042262;28;20063;-79
2022/02/01 10:27:27;;;;;;;16.35;5.07;;;3.90;99.90;;;;;;5059787;28;20447;-81
2022/02/01 10:30:17;;;;;;;19.40;4.43;;;3.80;99.90;;;;;;5027237;28;20035;-83
2022/02/01 10:37:56;;;;;;;14.93;4.95;;;3.80;99.90;;;;;;5054696;28;20072;-82
2022/02/01 10:40:22;;;;;;;17.05;4.88;;;3.80;99.90;;;;;;5040814;28;20021;-82
2022/02/01 10:42:55;;;;;;;18.10;5.07;;;3.80;99.90;;;;;;5026759;28;20041;-83
2022/02/01 10:45:21;;;;;;;20.02;4.90;;;3.90;99.90;;;;;;5044108;28;20021;-81
2022/02/01 10:47:46;;;;;;;18.23;5.93;;;3.80;99.90;;;;;;5024965;28;20041;-81
2022/02/01 10:50:17;;;;;;;17.30;4.95;;;3.80;99.90;;;;;;5024105;28;20047;-81
2022/02/01 10:52:45;;;;;;;10.10;4.28;;;3.90;99.90;;;;;;5024998;28;20566;-81
2022/02/01 10:55:12;;;;;;;12.98;5.15;;;3.90;99.90;;;;;;5027200;28;20071;-82
2022/02/01 10:57:39;;;;;;;15.77;5.00;;;3.90;99.90;;;;;;5027101;28;20037;-82
2022/02/01 11:00:07;;;;;;;17.83;5.32;;;4.00;99.90;;;;;;5026561;28;20029;-81
2022/02/01 11:02:37;;;;;;;17.45;4.40;;;4.00;99.90;;;;;;5026453;28;20484;-80
2022/02/01 11:05:04;;;;;;;11.43;3.92;;;4.10;99.90;;;;;;5041837;28;20047;-81
2022/02/01 11:07:29;;;;;;;12.48;4.30;;;4.10;99.90;;;;;;5023486;28;20032;-82
2022/02/01 11:09:55;;;;;;;16.30;5.15;;;4.10;99.90;;;;;;5038130;28;20037;-83
2022/02/01 11:12:31;;;;;;;14.85;3.85;;;4.10;99.90;;;;;;5020648;28;20488;-83
2022/02/01 11:14:59;;;;;;;11.00;4.57;;;4.10;99.90;;;;;;5025606;28;20438;-82
2022/02/01 11:17:25;;;;;;;13.38;4.22;;;4.10;99.90;;;;;;5060942;28;20032;-82
2022/02/01 11:19:57;;;;;;;13.43;3.90;;;4.10;99.90;;;;;;5061084;28;20040;-82
2022/02/01 11:22:30;;;;;;;11.90;4.70;;;4.10;99.90;;;;;;5047534;28;20028;-82
2022/02/01 11:25:21;;;;;;;14.63;4.57;;;4.20;99.90;;;;;;5005751;28;20428;-82
2022/02/01 11:28:08;;;;;;;14.65;5.63;;;4.20;99.90;;;;;;5037574;28;20032;-83
2022/02/01 11:30:34;;;;;;;14.18;4.60;;;4.20;99.90;;;;;;5023835;28;20026;-82
2022/02/01 11:33:01;;;;;;;14.48;4.63;;;4.20;99.90;;;;;;5041489;28;20037;-82
2022/02/01 11:35:32;;;;;;;12.77;3.95;;;4.30;99.90;;;;;;5025432;28;20025;-82
2022/02/01 11:38:06;;;;;;;12.68;3.90;;;4.20;99.90;;;;;;5040389;28;20041;-80
2022/02/01 11:40:46;;;;;;;15.25;4.47;;;4.20;99.90;;;;;;5025391;28;20155;-81
2022/02/01 11:43:13;;;;;;;10.68;3.80;;;4.30;99.90;;;;;;5022507;28;20106;-83
2022/02/01 11:45:43;;;;;;;17.90;5.35;;;4.30;99.90;;;;;;5028289;28;20021;-80
2022/02/01 11:48:21;;;;;;;16.58;4.63;;;4.30;99.90;;;;;;5041368;28;20075;-83
2022/02/01 11:50:54;;;;;;;11.40;4.60;;;4.30;99.90;;;;;;5071936;28;20025;-82
2022/02/01 11:53:26;;;;;;;16.40;4.40;;;4.40;99.90;;;;;;5026398;28;20029;-82
2022/02/01 11:55:53;;;;;;;13.40;5.05;;;4.40;99.90;;;;;;5063049;28;20075;-83
2022/02/01 11:58:32;;;;;;;8.40;4.43;;;4.40;99.90;;;;;;5043648;28;20025;-81
2022/02/01 12:01:00;;;;;;;15.20;5.15;;;4.40;99.90;;;;;;5043778;28;20037;-84
2022/02/01 12:03:31;;;;;;;14.35;5.60;;;4.40;99.90;;;;;;5027185;28;20071;-84
2022/02/01 12:06:04;;;;;;;13.73;4.32;;;4.40;99.90;;;;;;5021620;28;20043;-83
2022/02/01 12:08:35;;;;;;;13.40;5.50;;;4.50;99.90;;;;;;5058473;28;20033;-82
2022/02/01 12:11:03;;;;;;;16.33;7.03;;;4.50;99.90;;;;;;5010665;28;20031;-83
2022/02/01 12:13:30;;;;;;;18.85;5.68;;;4.50;99.90;;;;;;5024308;28;20056;-81
2022/02/01 12:16:00;;;;;;;11.52;4.93;;;4.50;99.90;;;;;;5021629;28;20044;-83
2022/02/01 12:18:41;;;;;;;11.65;5.45;;;4.50;99.90;;;;;;5024305;28;20041;-82
2022/02/01 12:21:28;;;;;;;13.10;4.90;;;4.50;99.90;;;;;;5053527;28;20588;-82
2022/02/01 12:23:57;;;;;;;13.50;5.93;;;4.50;99.90;;;;;;5057161;28;20055;-82
2022/02/01 12:26:36;;;;;;;14.32;5.05;;;4.60;99.90;;;;;;5048881;28;20523;-81
2022/02/01 12:29:05;;;;;;;14.80;5.68;;;4.50;99.90;;;;;;5026666;28;20037;-81
2022/02/01 12:31:38;;;;;;;21.27;6.05;;;4.50;99.90;;;;;;4993911;28;20044;-83
2022/02/01 12:34:05;;;;;;;12.82;6.03;;;4.40;99.90;;;;;;5025611;28;20049;-83
2022/02/01 12:36:38;;;;;;;11.43;7.15;;;4.40;99.90;;;;;;5023140;28;20055;-86
2022/02/01 12:39:25;;;;;;;15.73;6.80;;;4.40;99.90;;;;;;5009303;28;20028;-84
2022/02/01 12:42:14;;;;;;;10.55;5.97;;;4.40;99.90;;;;;;5041770;28;20056;-85
2022/02/01 12:47:21;;;;;;;16.48;6.50;;;4.40;99.90;;;;;;5060470;28;20033;-81
2022/02/01 12:49:52;;;;;;;13.98;6.40;;;4.40;99.90;;;;;;5063386;28;20069;-82
2022/02/01 12:52:26;;;;;;;12.68;5.95;;;4.40;99.90;;;;;;5040659;28;20029;-83
2022/02/01 12:55:10;;;;;;;15.65;6.60;;;4.50;99.90;;;;;;5021093;28;20034;-83
2022/02/01 12:57:39;;;;;;;12.48;7.07;;;4.50;99.90;;;;;;5038553;28;20030;-83
2022/02/01 13:00:13;;;;;;;11.82;6.78;;;4.60;99.90;;;;;;5042047;28;20029;-83
2022/02/01 13:02:39;;;;;;;17.02;6.57;;;4.60;99.90;;;;;;5041996;28;20029;-84
2022/02/01 13:05:12;;;;;;;10.98;6.53;;;4.60;99.90;;;;;;5042498;28;20092;-84
2022/02/01 13:16:19;;;;;;;11.60;6.13;;;4.50;99.90;;;;;;5044414;28;20481;-83
2022/02/01 13:21:21;;;;;;;9.63;5.20;;;4.50;99.90;;;;;;5059411;28;20078;-83
2022/02/01 13:23:57;;;;;;;9.57;5.68;;;4.50;99.90;;;;;;5026081;28;20033;-83
2022/02/01 13:26:28;;;;;;;11.35;5.80;;;4.40;99.90;;;;;;5058824;28;20076;-85
2022/02/01 13:28:59;;;;;;;7.88;4.85;;;4.40;99.90;;;;;;5041613;28;20067;-83
2022/02/01 13:31:29;;;;;;;10.05;5.00;;;4.40;99.90;;;;;;5026547;28;20048;-80
2022/02/01 13:33:58;;;;;;;11.45;4.82;;;4.40;99.90;;;;;;5038258;28;20104;-81
2022/02/01 13:36:24;;;;;;;9.65;4.78;;;4.50;99.90;;;;;;5025253;28;20081;-80
2022/02/01 13:39:03;;;;;;;9.40;4.72;;;4.80;99.90;;;;;;5041777;28;20036;-79
2022/02/01 13:41:36;;;;;;;5.75;4.28;;;5.00;99.90;;;;;;5059225;28;20036;-82
2022/02/01 13:44:03;;;;;;;7.78;3.50;;;5.00;99.90;;;;;;5059635;28;20025;-85
2022/02/01 13:46:31;;;;;;;5.20;3.83;;;5.00;99.90;;;;;;5024832;28;20033;-85
2022/02/01 13:49:08;;;;;;;8.25;3.85;;;5.00;99.90;;;;;;5041016;28;20033;-83
2022/02/01 13:51:48;;;;;;;7.38;3.72;;;5.10;99.90;;;;;;5040389;28;20140;-83
2022/02/01 13:54:14;;;;;;;6.47;3.85;;;5.10;99.90;;;;;;5058875;28;20037;-82
2022/02/01 13:56:46;;;;;;;6.47;3.53;;;5.10;99.90;;;;;;5024255;28;20021;-80
2022/02/01 13:59:22;;;;;;;7.20;3.25;;;5.20;99.90;;;;;;5059538;28;20039;-81
2022/02/01 14:01:59;;;;;;;6.15;3.33;;;5.00;99.90;;;;;;5024696;28;20488;-80
2022/02/01 14:04:35;;;;;;;8.57;3.50;;;5.00;99.90;;;;;;5025975;28;20033;-79
2022/02/01 14:07:16;;;;;;;7.68;4.10;;;4.70;99.90;;;;;;5010476;28;20064;-81
2022/02/01 14:16:14;;;;;;;9.02;3.40;;;4.60;99.90;;;;;;5054925;28;20465;-82
2022/02/01 14:28:59;;;;;;;8.23;2.95;;;4.70;99.90;;;;;;5039879;28;20038;-81
2022/02/01 14:34:17;;;;;;;12.37;3.83;;;4.80;99.90;;;;;;5041933;28;20029;-81
2022/02/01 14:36:44;;;;;;;;;;;4.80;99.90;;;;;;5039486;28;20542;-79
2022/02/01 14:39:18;;;;;;;5.18;2.92;;;4.80;99.90;;;;;;5055644;28;19959;-79
2022/02/01 14:44:34;;;;;;;4.95;3.10;;;4.70;99.90;;;;;;5007347;28;20037;-77
2022/02/01 14:47:01;;;;;;;5.25;2.90;;;4.70;99.90;;;;;;5037347;28;20048;-80
2022/02/01 14:49:27;;;;;;;4.15;3.17;;;4.70;99.90;;;;;;5021544;28;20123;-81